High wind

Not for real navigation. The accuracy of this data is not assured See disclaimer for more information



ICAO NAME COUNTRY WIND Kt GUST Kt VIS m TEMP/DEW C BARO METAR
ENSL 52 0 9999 8/2 29.62 ENSL 181650Z 31052KT 9999 -SHRA BKN028 08/02 Q1003 W08/S6
ENHM 44 0 9999 8/3 29.50 ENHM 181650Z 32044KT 9999 FEW025 SCT035 08/03 Q0999 W09/S7
ENSF 42 0 9999 8/4 29.44 ENSF 181650Z AUTO 33042KT 9999NDV -SHRA BKN021/// 08/04 Q0997 W///S6
CZPC Pincher Creek Airport Canada 42 50 14400 0/-6 29.95 CZPC 181700Z AUTO 25042G50KT 9SM 00/M06 A2995 RMK CLD MISG SLP183
ENSE 39 0 9999 8/3 29.44 ENSE 181650Z AUTO 34039KT 9999NDV FEW038/// 08/03 Q0997 W///S6

Show more